EGNM/LBA METAR and TAF weather

Enter ICAO airport designator
Station Type Date Time Source
EGNM METAR 2020/02/21 15:50 UTC NOAA

EGNM 211550Z 23022KT 9999 -RA SCT011 SCT016 08/07 Q1009


Station Type Date Time Source
EGNM Decoded METAR 2020/02/21 15:50 UTC NOAA

Leeds And Bradford, United Kingdom (EGNM) 53-52N 001-39W
Feb 21, 2020 - 10:50 AM EST / 2020.02.21 1550 UTC
Wind: from the SW (230 degrees) at 25 MPH (22 KT):0
Visibility: greater than 7 mile(s):0
Sky conditions: partly cloudy
Weather: light rain
Temperature: 46 F (8 C)
Dew Point: 44 F (7 C)
Relative Humidity: 93%
Pressure (altimeter): 29.80 in. Hg (1009 hPa)
ob: EGNM 211550Z 23022KT 9999 -RA SCT011 SCT016 08/07 Q1009
cycle: 16

Station Type Date Time Source
EGNM TAF 2020/02/21 12:06 UTC NOAA

TAF TAF EGNM 211055Z 2112/2212 20018G28KT 9999 FEW010 SCT020
TEMPO 2112/2202 22028G40KT 8000 -RA PROB30
TEMPO 2122/2202 RA BKN010
BECMG 2202/2205 26020G32KT
TEMPO 2202/2205 25030G45KT 3000 +SHRA BKN010
TEMPO 2205/2212 6000 SHRA

Example: see airport list